Saint Louis, Missouri
Traffic Map
Current Weather Conditions
Saint Louis, Missouri
Few Clouds
Few Clouds
28°
Feels Like: 28°
Wind Chill: 28° Ceiling: Unl
Heat Index: 28° Visibility: 10mi
Dew Point: 16° Wind: 6mph
Humidity: 47% Direction: 280° (W)
Pressure: 30.05in Gusts: 0mph
Raw Report DataKCPS 272153Z 28005KT 10SM FEW060 FEW080 28/16 A3005 RMK AO2 SLP172 T02780156
Traffic Incident Summary
Active as of:
Severity:
Category:
InformationThere was an issue retrieving the traffic information for this location. Please try a different location or try again shortly.
Advertisements
Track Severe Weather on mobile